sensor_id;sensor_type;location;lat;lon;timestamp;P1;durP1;ratioP1;P2;durP2;ratioP2
7745;SDS011;3917;42.748;23.278;2022-09-25T18:47:37;6.25;;;3.00;;
7745;SDS011;3917;42.748;23.278;2022-09-25T18:50:19;5.25;;;3.08;;
7745;SDS011;3917;42.748;23.278;2022-09-25T18:52:48;5.15;;;3.30;;
7745;SDS011;3917;42.748;23.278;2022-09-25T18:55:24;6.68;;;3.10;;
7745;SDS011;3917;42.748;23.278;2022-09-25T18:58:16;3.33;;;2.70;;
7745;SDS011;3917;42.748;23.278;2022-09-25T19:00:48;3.45;;;2.58;;
7745;SDS011;3917;42.748;23.278;2022-09-25T19:06:32;4.57;;;2.42;;
7745;SDS011;3917;42.748;23.278;2022-09-25T19:09:26;4.65;;;3.17;;
7745;SDS011;3917;42.748;23.278;2022-09-25T19:11:58;3.85;;;3.08;;
7745;SDS011;3917;42.748;23.278;2022-09-25T19:14:25;6.90;;;3.50;;
7745;SDS011;3917;42.748;23.278;2022-09-25T19:16:53;4.30;;;3.33;;
7745;SDS011;3917;42.748;23.278;2022-09-25T19:19:20;7.82;;;3.20;;
7745;SDS011;3917;42.748;23.278;2022-09-25T19:22:05;9.38;;;3.10;;
7745;SDS011;3917;42.748;23.278;2022-09-25T19:31:22;4.90;;;2.80;;
7745;SDS011;3917;42.748;23.278;2022-09-25T19:33:59;3.72;;;2.78;;
7745;SDS011;3917;42.748;23.278;2022-09-25T19:36:30;7.55;;;3.17;;
7745;SDS011;3917;42.748;23.278;2022-09-25T19:39:29;9.50;;;3.13;;
7745;SDS011;3917;42.748;23.278;2022-09-25T19:42:16;12.85;;;2.95;;
7745;SDS011;3917;42.748;23.278;2022-09-25T19:48:18;4.00;;;2.67;;
7745;SDS011;3917;42.748;23.278;2022-09-25T20:00:09;5.80;;;3.40;;
7745;SDS011;3917;42.748;23.278;2022-09-25T20:02:48;4.85;;;3.30;;
7745;SDS011;3917;42.748;23.278;2022-09-25T20:05:17;5.28;;;3.75;;
7745;SDS011;3917;42.748;23.278;2022-09-25T20:07:47;5.75;;;4.00;;
7745;SDS011;3917;42.748;23.278;2022-09-25T20:10:14;4.60;;;3.67;;
7745;SDS011;3917;42.748;23.278;2022-09-25T20:12:50;7.18;;;3.83;;
7745;SDS011;3917;42.748;23.278;2022-09-25T20:18:14;4.57;;;3.78;;
7745;SDS011;3917;42.748;23.278;2022-09-25T20:20:49;5.97;;;3.67;;
7745;SDS011;3917;42.748;23.278;2022-09-25T20:24:02;8.50;;;3.90;;
7745;SDS011;3917;42.748;23.278;2022-09-25T20:37:48;4.78;;;3.88;;
7745;SDS011;3917;42.748;23.278;2022-09-25T20:40:29;6.00;;;3.88;;
7745;SDS011;3917;42.748;23.278;2022-09-25T20:46:42;10.27;;;4.00;;
7745;SDS011;3917;42.748;23.278;2022-09-25T20:49:11;8.48;;;4.25;;
7745;SDS011;3917;42.748;23.278;2022-09-25T20:51:54;9.35;;;3.80;;
7745;SDS011;3917;42.748;23.278;2022-09-25T21:03:58;3.38;;;2.70;;
7745;SDS011;3917;42.748;23.278;2022-09-25T21:06:35;6.03;;;3.63;;
7745;SDS011;3917;42.748;23.278;2022-09-25T21:09:48;5.35;;;3.60;;
7745;SDS011;3917;42.748;23.278;2022-09-25T21:12:26;6.18;;;3.35;;
7745;SDS011;3917;42.748;23.278;2022-09-25T21:14:55;5.13;;;3.70;;
7745;SDS011;3917;42.748;23.278;2022-09-25T21:17:30;5.95;;;3.97;;
7745;SDS011;3917;42.748;23.278;2022-09-25T21:19:58;7.95;;;4.22;;
7745;SDS011;3917;42.748;23.278;2022-09-25T21:22:44;7.78;;;4.35;;
7745;SDS011;3917;42.748;23.278;2022-09-25T22:20:50;5.07;;;3.72;;
7745;SDS011;3917;42.748;23.278;2022-09-25T22:24:07;4.22;;;3.83;;
7745;SDS011;3917;42.748;23.278;2022-09-25T22:26:45;6.03;;;4.05;;
7745;SDS011;3917;42.748;23.278;2022-09-25T22:33:03;4.22;;;3.80;;
7745;SDS011;3917;42.748;23.278;2022-09-25T22:35:47;7.88;;;4.43;;
7745;SDS011;3917;42.748;23.278;2022-09-25T22:38:23;9.15;;;4.43;;
7745;SDS011;3917;42.748;23.278;2022-09-25T22:41:00;10.23;;;4.30;;
7745;SDS011;3917;42.748;23.278;2022-09-25T22:43:41;5.93;;;3.80;;
7745;SDS011;3917;42.748;23.278;2022-09-25T22:46:30;4.45;;;4.00;;
7745;SDS011;3917;42.748;23.278;2022-09-25T22:55:29;6.55;;;4.10;;
7745;SDS011;3917;42.748;23.278;2022-09-25T22:58:12;5.22;;;3.80;;
7745;SDS011;3917;42.748;23.278;2022-09-25T23:00:47;5.97;;;3.75;;
7745;SDS011;3917;42.748;23.278;2022-09-25T23:03:32;9.13;;;3.55;;
7745;SDS011;3917;42.748;23.278;2022-09-25T23:06:19;5.05;;;4.13;;
7745;SDS011;3917;42.748;23.278;2022-09-25T23:08:59;4.55;;;3.95;;
7745;SDS011;3917;42.748;23.278;2022-09-25T23:11:41;8.25;;;4.20;;
7745;SDS011;3917;42.748;23.278;2022-09-25T23:14:19;4.93;;;4.03;;
7745;SDS011;3917;42.748;23.278;2022-09-25T23:16:58;8.05;;;4.57;;
7745;SDS011;3917;42.748;23.278;2022-09-25T23:19:25;5.45;;;4.22;;
7745;SDS011;3917;42.748;23.278;2022-09-25T23:21:53;7.18;;;4.20;;
7745;SDS011;3917;42.748;23.278;2022-09-25T23:24:22;5.38;;;4.35;;
7745;SDS011;3917;42.748;23.278;2022-09-25T23:26:50;8.52;;;5.22;;
7745;SDS011;3917;42.748;23.278;2022-09-25T23:29:19;5.63;;;3.70;;
7745;SDS011;3917;42.748;23.278;2022-09-25T23:31:47;7.38;;;4.65;;
7745;SDS011;3917;42.748;23.278;2022-09-25T23:34:14;5.25;;;3.92;;
7745;SDS011;3917;42.748;23.278;2022-09-25T23:36:42;6.57;;;3.90;;
7745;SDS011;3917;42.748;23.278;2022-09-25T23:39:09;5.40;;;4.10;;
7745;SDS011;3917;42.748;23.278;2022-09-25T23:41:42;8.02;;;4.88;;
7745;SDS011;3917;42.748;23.278;2022-09-25T23:44:09;6.82;;;4.88;;
7745;SDS011;3917;42.748;23.278;2022-09-25T23:46:40;8.50;;;4.53;;
7745;SDS011;3917;42.748;23.278;2022-09-25T23:49:09;6.30;;;4.28;;
7745;SDS011;3917;42.748;23.278;2022-09-25T23:51:36;8.57;;;5.10;;
7745;SDS011;3917;42.748;23.278;2022-09-25T23:54:04;9.55;;;5.10;;
7745;SDS011;3917;42.748;23.278;2022-09-25T23:56:34;6.95;;;4.50;;
7745;SDS011;3917;42.748;23.278;2022-09-25T23:59:03;7.93;;;5.10;;
